Terminal Aerodrome Forecast
Issued by NWS Charleston, WV

Current Version | Previous Version | Graphics & Text | Print | Product List | Glossary On
Versions: 1 2 3 4 5 6 7 8 9 10 11 12 13 14 15 16 17 18 19 20 21 22 23 24 25 26 27 28 29
000
FTUS41 KRLX 201056 AAC
TAFEKN
TAF AMD
KEKN 201056Z 2011/2106 26004KT P6SM SCT025
      TEMPO 2012/2013 BKN025
     FM201600 24005KT P6SM SCT250
     FM210500 19003KT P6SM SCT250=

USA.gov is the U.S. government's official web portal to all federal, state and local government web resources and services.